createdAt,value
2024-01-29T00:00:28.192Z,3.31
2024-01-29T00:02:31.650Z,3.28
2024-01-29T00:04:34.931Z,3.27
2024-01-29T00:06:38.310Z,3.28
2024-01-29T00:08:42.882Z,3.27
2024-01-29T00:10:45.056Z,3.27
2024-01-29T00:12:48.316Z,3.25
2024-01-29T00:14:51.428Z,3.24
2024-01-29T00:16:54.633Z,3.25
2024-01-29T00:18:57.766Z,3.26
2024-01-29T00:21:01.265Z,3.24
2024-01-29T00:23:04.461Z,3.24
2024-01-29T00:25:10.633Z,3.23
2024-01-29T00:27:13.873Z,3.22
2024-01-29T00:29:16.985Z,3.18
2024-01-29T00:31:21.370Z,3.17
2024-01-29T00:33:24.279Z,3.17
2024-01-29T00:35:27.771Z,3.17
2024-01-29T00:37:31.413Z,3.15
2024-01-29T00:39:34.601Z,3.17
2024-01-29T00:41:39.152Z,3.15
2024-01-29T00:43:42.338Z,3.15
2024-01-29T00:45:45.398Z,3.12
2024-01-29T00:47:48.679Z,3.10
2024-01-29T00:49:51.862Z,3.11
2024-01-29T00:51:55.069Z,3.10
2024-01-29T00:53:59.091Z,3.09
2024-01-29T00:56:02.181Z,3.09
2024-01-29T00:58:07.017Z,3.08
2024-01-29T01:00:11.833Z,3.05
2024-01-29T01:02:14.936Z,3.06
2024-01-29T01:04:18.702Z,3.07
2024-01-29T01:06:22.573Z,3.03
2024-01-29T01:08:25.735Z,3.04
2024-01-29T01:10:29.119Z,3.03
2024-01-29T01:12:32.270Z,3.04
2024-01-29T01:14:38.773Z,3.03
2024-01-29T01:16:41.989Z,3.01
2024-01-29T01:18:45.325Z,3.03
2024-01-29T01:20:48.574Z,3.02
2024-01-29T01:22:51.729Z,3.02
2024-01-29T01:24:54.883Z,3.03
2024-01-29T01:26:58.069Z,3.03
2024-01-29T01:29:01.124Z,3.07
2024-01-29T01:31:06.363Z,3.05
2024-01-29T01:33:09.468Z,3.03
2024-01-29T01:35:13.129Z,3.03
2024-01-29T01:37:16.280Z,3.02
2024-01-29T01:39:19.392Z,3.00
2024-01-29T01:41:23.377Z,2.98
2024-01-29T01:43:26.492Z,2.98
2024-01-29T01:45:30.178Z,2.98
2024-01-29T01:47:34.977Z,2.98
2024-01-29T01:49:38.152Z,2.99
2024-01-29T01:51:42.036Z,2.97
2024-01-29T01:53:47.095Z,2.95
2024-01-29T01:55:50.147Z,2.94
2024-01-29T01:57:53.401Z,2.93
2024-01-29T01:59:56.920Z,2.93
2024-01-29T02:02:00.304Z,2.92
2024-01-29T02:04:05.540Z,2.90
2024-01-29T02:06:09.126Z,2.89
2024-01-29T02:08:12.304Z,2.90
2024-01-29T02:10:16.071Z,2.87
2024-01-29T02:12:20.974Z,2.86
2024-01-29T02:14:24.065Z,2.84
2024-01-29T02:16:27.192Z,2.84
2024-01-29T02:18:30.416Z,2.83
2024-01-29T02:20:34.491Z,2.82
2024-01-29T02:22:43.283Z,2.82
2024-01-29T02:24:45.546Z,2.81
2024-01-29T02:26:49.198Z,2.80
2024-01-29T02:28:52.258Z,2.76
2024-01-29T02:30:56.077Z,2.76
2024-01-29T02:33:00.005Z,2.76
2024-01-29T02:35:03.221Z,2.76
2024-01-29T02:37:06.451Z,2.77
2024-01-29T02:39:10.963Z,2.75
2024-01-29T02:41:14.064Z,2.76
2024-01-29T02:43:17.458Z,2.76
2024-01-29T02:45:20.759Z,2.76
2024-01-29T02:47:24.340Z,2.75
2024-01-29T02:49:27.606Z,2.74
2024-01-29T02:51:30.713Z,2.73
2024-01-29T02:53:33.976Z,2.73
2024-01-29T02:55:38.643Z,2.72
2024-01-29T02:57:41.790Z,2.72
2024-01-29T02:59:44.864Z,2.71
2024-01-29T03:01:48.050Z,2.69
2024-01-29T03:03:51.194Z,2.69
2024-01-29T03:05:54.383Z,2.68
2024-01-29T03:07:56.502Z,2.66
2024-01-29T03:09:59.821Z,2.65
2024-01-29T03:12:04.903Z,2.65
2024-01-29T03:14:07.994Z,2.65
2024-01-29T03:16:11.099Z,2.62
2024-01-29T03:18:14.514Z,2.62
2024-01-29T03:20:17.839Z,2.64
2024-01-29T03:22:21.014Z,2.65
2024-01-29T03:24:24.214Z,2.61
2024-01-29T03:26:27.374Z,2.57
2024-01-29T03:28:31.875Z,2.58
2024-01-29T03:30:34.931Z,2.58
2024-01-29T03:32:38.045Z,2.55
2024-01-29T03:34:45.624Z,2.52
2024-01-29T03:36:48.832Z,2.51
2024-01-29T03:38:51.983Z,2.50
2024-01-29T03:40:55.043Z,2.52
2024-01-29T03:42:58.136Z,2.50
2024-01-29T03:45:04.227Z,2.48
2024-01-29T03:47:07.504Z,2.45
2024-01-29T03:49:10.730Z,2.44
2024-01-29T03:51:13.860Z,2.45
2024-01-29T03:53:16.871Z,2.46
2024-01-29T03:55:20.173Z,2.43
2024-01-29T03:57:23.398Z,2.44
2024-01-29T03:59:26.728Z,2.46
2024-01-29T04:01:31.690Z,2.44
2024-01-29T04:03:34.952Z,2.47
2024-01-29T04:05:38.209Z,2.47
2024-01-29T04:07:40.743Z,2.46
2024-01-29T04:09:43.886Z,2.47
2024-01-29T04:11:46.064Z,2.46
2024-01-29T04:13:49.266Z,2.45
2024-01-29T04:15:51.467Z,2.42
2024-01-29T04:17:56.340Z,2.42
2024-01-29T04:19:59.536Z,2.39
2024-01-29T04:22:02.835Z,2.36
2024-01-29T04:24:06.472Z,2.34
2024-01-29T04:26:09.566Z,2.38
2024-01-29T04:28:12.850Z,2.38
2024-01-29T04:30:15.340Z,2.35
2024-01-29T04:32:18.391Z,2.34
2024-01-29T04:34:23.005Z,2.37
2024-01-29T04:36:26.160Z,2.41
2024-01-29T04:38:29.237Z,2.44
2024-01-29T04:40:34.406Z,2.42
2024-01-29T04:42:37.589Z,2.40
2024-01-29T04:44:39.664Z,2.37
2024-01-29T04:46:42.882Z,2.39
2024-01-29T04:48:46.099Z,2.39
2024-01-29T04:50:50.544Z,2.38
2024-01-29T04:52:53.585Z,2.35
2024-01-29T04:54:57.154Z,2.34
2024-01-29T04:57:00.507Z,2.35
2024-01-29T04:59:02.918Z,2.34
2024-01-29T05:01:06.280Z,2.37
2024-01-29T05:03:08.475Z,2.31
2024-01-29T05:05:11.814Z,2.27
2024-01-29T05:07:16.447Z,2.27
2024-01-29T05:09:20.472Z,2.27
2024-01-29T05:11:23.618Z,2.26
2024-01-29T05:13:26.718Z,2.27
2024-01-29T05:15:29.901Z,2.27
2024-01-29T05:17:33.094Z,2.28
2024-01-29T05:19:36.264Z,2.29
2024-01-29T05:21:38.361Z,2.28
2024-01-29T05:23:42.850Z,2.30
2024-01-29T05:25:45.396Z,2.29
2024-01-29T05:27:48.538Z,2.30
2024-01-29T05:29:51.655Z,2.28
2024-01-29T05:31:54.722Z,2.29
2024-01-29T05:33:57.887Z,2.30
2024-01-29T05:36:00.992Z,2.32
2024-01-29T05:38:04.504Z,2.33
2024-01-29T05:40:12.910Z,2.34
2024-01-29T05:42:16.165Z,2.36
2024-01-29T05:44:18.298Z,2.36
2024-01-29T05:46:21.413Z,2.36
2024-01-29T05:48:24.683Z,2.39
2024-01-29T05:50:27.019Z,2.38
2024-01-29T05:52:30.117Z,2.37
2024-01-29T05:54:33.264Z,2.36
2024-01-29T05:56:42.007Z,2.36
2024-01-29T05:58:45.979Z,2.37
2024-01-29T06:00:49.231Z,2.34
2024-01-29T06:02:52.471Z,2.34
2024-01-29T06:04:55.753Z,2.37
2024-01-29T06:06:59.070Z,2.39
2024-01-29T06:09:01.334Z,2.39
2024-01-29T06:11:04.585Z,2.37
2024-01-29T06:13:09.367Z,2.36
2024-01-29T06:15:12.776Z,2.38
2024-01-29T06:17:15.844Z,2.39
2024-01-29T06:19:20.249Z,2.40
2024-01-29T06:21:24.062Z,2.39
2024-01-29T06:23:28.614Z,2.38
2024-01-29T06:25:31.654Z,2.35
2024-01-29T06:27:34.908Z,2.34
2024-01-29T06:29:39.377Z,2.33
2024-01-29T06:31:42.640Z,2.36
2024-01-29T06:33:45.844Z,2.35
2024-01-29T06:35:49.368Z,2.38
2024-01-29T06:37:52.432Z,2.41
2024-01-29T06:39:55.589Z,2.39
2024-01-29T06:41:58.904Z,2.43
2024-01-29T06:44:01.990Z,2.43
2024-01-29T06:46:06.982Z,2.43
2024-01-29T06:48:09.770Z,2.45
2024-01-29T06:50:12.952Z,2.47
2024-01-29T06:52:18.734Z,2.48
2024-01-29T06:54:22.289Z,2.45
2024-01-29T06:56:25.382Z,2.41
2024-01-29T06:58:28.499Z,2.42
2024-01-29T07:00:31.608Z,2.46
2024-01-29T07:02:36.607Z,2.46
2024-01-29T07:04:39.822Z,2.47
2024-01-29T07:06:44.699Z,2.49
2024-01-29T07:08:47.954Z,2.53
2024-01-29T07:10:51.049Z,2.55
2024-01-29T07:12:54.291Z,2.59
2024-01-29T07:14:57.506Z,2.65
2024-01-29T07:16:59.652Z,2.70
2024-01-29T07:19:04.246Z,2.82
2024-01-29T07:21:07.572Z,2.97
2024-01-29T07:23:11.985Z,3.10
2024-01-29T07:25:14.217Z,3.23
2024-01-29T07:27:20.121Z,3.34
2024-01-29T07:29:23.257Z,3.46
2024-01-29T07:31:26.524Z,3.56
2024-01-29T07:33:29.764Z,3.66
2024-01-29T07:35:34.629Z,3.77
2024-01-29T07:37:38.013Z,3.86
2024-01-29T07:39:41.413Z,3.95
2024-01-29T07:41:44.533Z,4.03
2024-01-29T07:43:46.891Z,4.07
2024-01-29T07:45:50.068Z,4.11
2024-01-29T07:47:53.358Z,4.07
2024-01-29T07:49:56.553Z,4.09
2024-01-29T07:52:01.495Z,4.10
2024-01-29T07:54:04.748Z,4.11
2024-01-29T07:56:08.463Z,4.15
2024-01-29T07:58:10.905Z,4.18
2024-01-29T08:00:15.377Z,4.23
2024-01-29T08:02:18.818Z,4.24
2024-01-29T08:04:21.306Z,4.28
2024-01-29T08:06:24.510Z,4.38
2024-01-29T08:08:30.160Z,4.45
2024-01-29T08:10:33.291Z,4.59
2024-01-29T08:12:36.432Z,4.71
2024-01-29T08:14:40.299Z,4.82
2024-01-29T08:16:45.723Z,4.96
2024-01-29T08:18:49.058Z,5.10
2024-01-29T08:20:52.407Z,5.25
2024-01-29T08:22:55.480Z,5.34
2024-01-29T08:25:01.383Z,5.40
2024-01-29T08:27:03.661Z,5.47
2024-01-29T08:29:07.255Z,5.53
2024-01-29T08:31:11.693Z,5.56
2024-01-29T08:33:15.080Z,5.63
2024-01-29T08:35:18.538Z,5.73
2024-01-29T08:37:21.651Z,5.87
2024-01-29T08:39:25.066Z,6.00
2024-01-29T08:41:29.702Z,6.06
2024-01-29T08:43:32.794Z,6.14
2024-01-29T08:45:36.246Z,6.24
2024-01-29T08:47:39.554Z,6.29
2024-01-29T08:49:42.038Z,6.35
2024-01-29T08:51:46.199Z,6.37
2024-01-29T08:53:49.345Z,6.45
2024-01-29T08:55:52.450Z,6.50
2024-01-29T08:57:55.907Z,6.47
2024-01-29T08:59:59.061Z,6.47
2024-01-29T09:02:02.391Z,6.47
2024-01-29T09:04:04.837Z,6.51
2024-01-29T09:06:08.228Z,6.61
2024-01-29T09:08:16.404Z,6.76
2024-01-29T09:10:22.351Z,6.89
2024-01-29T09:12:24.492Z,6.97
2024-01-29T09:14:29.220Z,7.00
2024-01-29T09:16:33.640Z,7.10
2024-01-29T09:18:35.829Z,7.22
2024-01-29T09:20:38.945Z,7.25
2024-01-29T09:22:42.049Z,7.27
2024-01-29T09:24:45.369Z,7.31
2024-01-29T09:26:48.498Z,7.37
2024-01-29T09:28:51.691Z,7.43
2024-01-29T09:30:56.315Z,7.52
2024-01-29T09:33:07.244Z,7.55
2024-01-29T09:35:18.684Z,7.65
2024-01-29T09:37:22.164Z,7.72
2024-01-29T09:39:26.221Z,7.75
2024-01-29T09:41:33.213Z,7.85
2024-01-29T09:43:36.772Z,7.91
2024-01-29T09:45:40.031Z,8.01
2024-01-29T09:47:45.093Z,8.16
2024-01-29T09:49:48.490Z,8.27
2024-01-29T09:51:51.634Z,8.35
2024-01-29T09:53:56.364Z,8.47
2024-01-29T09:55:59.554Z,8.57
2024-01-29T09:58:02.781Z,8.61
2024-01-29T10:00:08.048Z,8.64
2024-01-29T10:02:11.930Z,8.72
2024-01-29T10:04:16.550Z,8.78
2024-01-29T10:06:19.720Z,8.79
2024-01-29T10:08:25.436Z,8.80
2024-01-29T10:10:28.913Z,8.92
2024-01-29T10:12:32.840Z,9.07
2024-01-29T10:14:38.799Z,9.22
2024-01-29T10:16:41.889Z,9.34
2024-01-29T10:18:45.093Z,9.39
2024-01-29T10:20:50.557Z,9.49
2024-01-29T10:22:59.986Z,9.56
2024-01-29T10:25:04.274Z,9.70
2024-01-29T10:27:08.400Z,9.81
2024-01-29T10:29:12.236Z,9.90
2024-01-29T10:31:17.614Z,10.03
2024-01-29T10:33:20.922Z,10.16
2024-01-29T10:35:26.482Z,10.24
2024-01-29T10:37:31.189Z,10.35
2024-01-29T10:39:39.568Z,10.42
2024-01-29T10:41:50.610Z,10.50
2024-01-29T10:43:54.275Z,10.61
2024-01-29T10:45:57.597Z,10.67
2024-01-29T10:48:08.767Z,10.78
2024-01-29T10:50:17.365Z,10.85
2024-01-29T10:52:21.353Z,10.91
2024-01-29T10:54:26.105Z,11.02
2024-01-29T10:56:29.468Z,11.04
2024-01-29T10:58:32.286Z,11.08
2024-01-29T11:00:37.317Z,11.12
2024-01-29T11:02:40.665Z,11.15
2024-01-29T11:04:42.867Z,11.17
2024-01-29T11:06:51.783Z,11.18
2024-01-29T11:08:59.643Z,11.23
2024-01-29T11:11:05.849Z,11.24
2024-01-29T11:13:11.224Z,11.28
2024-01-29T11:15:13.302Z,11.31
2024-01-29T11:17:17.330Z,11.37
2024-01-29T11:19:23.300Z,11.46
2024-01-29T11:21:26.534Z,11.51
2024-01-29T11:23:31.510Z,11.55
2024-01-29T11:25:35.090Z,11.60
2024-01-29T11:27:44.808Z,11.67
2024-01-29T11:29:49.235Z,11.71
2024-01-29T11:31:55.119Z,11.76
2024-01-29T11:34:06.239Z,11.76
2024-01-29T11:36:13.918Z,11.75
2024-01-29T11:38:23.222Z,11.76
2024-01-29T11:40:33.048Z,11.81
2024-01-29T11:42:37.005Z,11.86
2024-01-29T11:44:42.463Z,11.92
2024-01-29T11:46:44.956Z,11.98
2024-01-29T11:48:48.312Z,12.02
2024-01-29T11:50:53.206Z,12.05
2024-01-29T11:53:04.643Z,12.11
2024-01-29T11:55:09.213Z,12.18
2024-01-29T11:57:12.443Z,12.21
2024-01-29T11:59:15.707Z,12.23
2024-01-29T12:01:20.335Z,12.29
2024-01-29T12:03:24.691Z,12.39
2024-01-29T12:05:29.415Z,12.47
2024-01-29T12:07:32.602Z,12.55
2024-01-29T12:09:36.966Z,12.61
2024-01-29T12:11:40.238Z,12.66
2024-01-29T12:13:43.648Z,12.68
2024-01-29T12:15:47.366Z,12.72
2024-01-29T12:17:54.704Z,12.71
2024-01-29T12:19:57.957Z,12.74
2024-01-29T12:22:01.714Z,12.77
2024-01-29T12:24:05.281Z,12.80
2024-01-29T12:26:08.801Z,12.81
2024-01-29T12:28:11.411Z,12.82
2024-01-29T12:30:16.153Z,12.87
2024-01-29T12:32:21.596Z,12.95
2024-01-29T12:34:26.233Z,13.00
2024-01-29T12:36:29.547Z,13.05
2024-01-29T12:38:33.371Z,13.10
2024-01-29T12:40:37.106Z,13.16
2024-01-29T12:42:40.252Z,13.20
2024-01-29T12:44:43.441Z,13.21
2024-01-29T12:46:57.127Z,13.22
2024-01-29T12:49:04.485Z,13.27
2024-01-29T12:51:11.902Z,13.31
2024-01-29T12:53:15.065Z,13.33
2024-01-29T12:55:19.426Z,13.40
2024-01-29T12:57:22.667Z,13.47
2024-01-29T12:59:27.084Z,13.53
2024-01-29T13:01:30.353Z,13.58
2024-01-29T13:03:34.810Z,13.61
2024-01-29T13:05:37.768Z,13.67
2024-01-29T13:07:42.660Z,13.69
2024-01-29T13:09:45.843Z,13.73
2024-01-29T13:11:50.722Z,13.77
2024-01-29T13:13:53.893Z,13.81
2024-01-29T13:15:57.203Z,13.87
2024-01-29T13:18:01.195Z,13.91
2024-01-29T13:20:07.337Z,13.96
2024-01-29T13:22:10.674Z,13.99
2024-01-29T13:24:15.328Z,14.02
2024-01-29T13:26:19.487Z,14.03
2024-01-29T13:28:22.985Z,14.07
2024-01-29T13:30:26.363Z,14.09
2024-01-29T13:32:29.488Z,14.11
2024-01-29T13:34:32.839Z,14.14
2024-01-29T13:36:36.338Z,14.18
2024-01-29T13:38:39.898Z,14.22
2024-01-29T13:40:44.454Z,14.26
2024-01-29T13:42:47.684Z,14.29
2024-01-29T13:44:51.123Z,14.31
2024-01-29T13:46:54.430Z,14.31
2024-01-29T13:48:57.786Z,14.34
2024-01-29T13:50:59.948Z,14.35
2024-01-29T13:53:03.336Z,14.37
2024-01-29T13:55:07.057Z,14.41
2024-01-29T13:57:13.328Z,14.41
2024-01-29T13:59:16.499Z,14.43
2024-01-29T14:01:20.551Z,14.45
2024-01-29T14:03:23.291Z,14.46
2024-01-29T14:05:26.550Z,14.48
2024-01-29T14:07:30.147Z,14.50
2024-01-29T14:09:33.358Z,14.51
2024-01-29T14:11:36.503Z,14.51
2024-01-29T14:13:41.174Z,14.54
2024-01-29T14:15:44.403Z,14.56
2024-01-29T14:17:47.565Z,14.56
2024-01-29T14:19:53.606Z,14.57
2024-01-29T14:21:59.625Z,14.58
2024-01-29T14:24:02.874Z,14.59
2024-01-29T14:26:06.368Z,14.60
2024-01-29T14:28:10.850Z,14.62
2024-01-29T14:30:15.886Z,14.60
2024-01-29T14:32:19.192Z,14.60
2024-01-29T14:34:23.841Z,14.57
2024-01-29T14:36:26.163Z,14.56
2024-01-29T14:38:31.541Z,14.54
2024-01-29T14:40:33.974Z,14.54
2024-01-29T14:42:37.202Z,14.55
2024-01-29T14:44:40.278Z,14.57
2024-01-29T14:46:44.936Z,14.55
2024-01-29T14:48:48.045Z,14.56
2024-01-29T14:50:51.138Z,14.56
2024-01-29T14:52:54.359Z,14.57
2024-01-29T14:54:57.701Z,14.57
2024-01-29T14:56:59.839Z,14.57
2024-01-29T14:59:03.315Z,14.58
2024-01-29T15:01:06.706Z,14.57
2024-01-29T15:03:13.506Z,14.57
2024-01-29T15:05:17.121Z,14.57
2024-01-29T15:07:20.289Z,14.54
2024-01-29T15:09:23.585Z,14.52
2024-01-29T15:11:26.745Z,14.52
2024-01-29T15:13:29.909Z,14.51
2024-01-29T15:15:34.638Z,14.51
2024-01-29T15:17:38.668Z,14.47
2024-01-29T15:19:43.172Z,14.45
2024-01-29T15:21:46.433Z,14.44
2024-01-29T15:23:49.798Z,14.42
2024-01-29T15:25:52.944Z,14.39
2024-01-29T15:27:56.276Z,14.37
2024-01-29T15:29:59.486Z,14.36
2024-01-29T15:32:02.696Z,14.34
2024-01-29T15:34:07.476Z,14.32
2024-01-29T15:36:12.422Z,14.29
2024-01-29T15:38:19.296Z,14.27
2024-01-29T15:40:24.495Z,14.23
2024-01-29T15:42:30.462Z,14.21
2024-01-29T15:44:36.721Z,14.17
2024-01-29T15:46:43.420Z,14.13
2024-01-29T15:48:46.574Z,14.09
2024-01-29T15:50:49.817Z,14.04
2024-01-29T15:52:54.226Z,13.99
2024-01-29T15:54:58.282Z,13.97
2024-01-29T15:57:06.432Z,13.95
2024-01-29T15:59:09.780Z,13.92
2024-01-29T16:01:13.986Z,13.88
2024-01-29T16:03:17.229Z,13.81
2024-01-29T16:05:20.422Z,13.75
2024-01-29T16:07:23.743Z,13.72
2024-01-29T16:09:28.374Z,13.65
2024-01-29T16:11:31.668Z,13.56
2024-01-29T16:13:34.807Z,13.49
2024-01-29T16:15:38.581Z,13.46
2024-01-29T16:17:41.735Z,13.39
2024-01-29T16:19:44.863Z,13.33
2024-01-29T16:21:47.145Z,13.27
2024-01-29T16:23:50.262Z,13.20
2024-01-29T16:25:53.770Z,13.15
2024-01-29T16:27:56.953Z,13.09
2024-01-29T16:29:59.935Z,13.03
2024-01-29T16:32:03.118Z,12.96
2024-01-29T16:34:08.599Z,12.89
2024-01-29T16:36:20.627Z,12.80
2024-01-29T16:38:23.824Z,12.71
2024-01-29T16:40:27.554Z,12.64
2024-01-29T16:42:32.601Z,12.56
2024-01-29T16:44:36.151Z,12.49
2024-01-29T16:46:41.034Z,12.40
2024-01-29T16:48:44.677Z,12.30
2024-01-29T16:50:48.713Z,12.22
2024-01-29T16:52:52.868Z,12.14
2024-01-29T16:54:56.520Z,12.06
2024-01-29T16:57:05.255Z,11.98
2024-01-29T16:59:10.958Z,11.93
2024-01-29T17:01:14.202Z,11.86
2024-01-29T17:03:17.517Z,11.80
2024-01-29T17:05:21.832Z,11.75
2024-01-29T17:07:28.354Z,11.68
2024-01-29T17:09:31.656Z,11.64
2024-01-29T17:11:33.926Z,11.59
2024-01-29T17:13:37.658Z,11.55
2024-01-29T17:15:42.349Z,11.48
2024-01-29T17:17:45.638Z,11.43
2024-01-29T17:19:48.917Z,11.39
2024-01-29T17:21:51.312Z,11.35
2024-01-29T17:23:54.532Z,11.27
2024-01-29T17:25:59.371Z,11.24
2024-01-29T17:28:02.662Z,11.19
2024-01-29T17:30:06.904Z,11.16
2024-01-29T17:32:11.370Z,11.10
2024-01-29T17:34:13.787Z,11.04
2024-01-29T17:36:17.045Z,10.96
2024-01-29T17:38:19.249Z,10.91
2024-01-29T17:40:22.437Z,10.85
2024-01-29T17:42:25.712Z,10.76
2024-01-29T17:44:28.920Z,10.70
2024-01-29T17:46:32.073Z,10.63
2024-01-29T17:48:36.761Z,10.56
2024-01-29T17:50:39.993Z,10.52
2024-01-29T17:52:43.098Z,10.44
2024-01-29T17:54:46.352Z,10.38
2024-01-29T17:56:49.581Z,10.32
2024-01-29T17:58:52.722Z,10.26
2024-01-29T18:00:56.572Z,10.17
2024-01-29T18:02:59.796Z,10.12
2024-01-29T18:05:04.589Z,10.06
2024-01-29T18:07:07.868Z,10.00
2024-01-29T18:09:11.012Z,9.94
2024-01-29T18:11:15.354Z,9.88
2024-01-29T18:13:20.588Z,9.83
2024-01-29T18:15:24.549Z,9.77
2024-01-29T18:17:27.608Z,9.73
2024-01-29T18:19:30.834Z,9.67
2024-01-29T18:21:35.453Z,9.61
2024-01-29T18:23:38.959Z,9.55
2024-01-29T18:25:42.027Z,9.51
2024-01-29T18:27:45.248Z,9.48
2024-01-29T18:29:47.578Z,9.45
2024-01-29T18:31:50.713Z,9.40
2024-01-29T18:33:53.870Z,9.31
2024-01-29T18:35:56.034Z,9.29
2024-01-29T18:38:00.802Z,9.22
2024-01-29T18:40:05.034Z,9.18
2024-01-29T18:42:09.363Z,9.12
2024-01-29T18:44:12.645Z,9.07
2024-01-29T18:46:16.791Z,9.03
2024-01-29T18:48:20.083Z,8.99
2024-01-29T18:50:23.406Z,8.95
2024-01-29T18:52:26.619Z,8.90
2024-01-29T18:54:31.155Z,8.85
2024-01-29T18:56:33.293Z,8.80
2024-01-29T18:58:36.923Z,8.76
2024-01-29T19:00:40.076Z,8.71
2024-01-29T19:02:44.511Z,8.67
2024-01-29T19:04:48.580Z,8.62
2024-01-29T19:06:52.075Z,8.59
2024-01-29T19:08:55.698Z,8.55
2024-01-29T19:11:00.240Z,8.52
2024-01-29T19:13:04.522Z,8.49
2024-01-29T19:15:11.579Z,8.45
2024-01-29T19:17:16.922Z,8.41
2024-01-29T19:19:21.897Z,8.37
2024-01-29T19:21:25.455Z,8.31
2024-01-29T19:23:29.120Z,8.28
2024-01-29T19:25:33.785Z,8.22
2024-01-29T19:27:38.985Z,8.19
2024-01-29T19:29:42.200Z,8.15
2024-01-29T19:31:47.404Z,8.11
2024-01-29T19:33:50.825Z,8.07
2024-01-29T19:35:54.416Z,8.02
2024-01-29T19:37:57.722Z,7.98
2024-01-29T19:40:02.012Z,7.95
2024-01-29T19:42:05.621Z,7.91
2024-01-29T19:44:10.552Z,7.84
2024-01-29T19:46:14.008Z,7.82
2024-01-29T19:48:17.643Z,7.78
2024-01-29T19:50:22.477Z,7.76
2024-01-29T19:52:26.216Z,7.74
2024-01-29T19:54:32.071Z,7.70
2024-01-29T19:56:35.416Z,7.67
2024-01-29T19:58:38.722Z,7.66
2024-01-29T20:00:42.361Z,7.62
2024-01-29T20:02:45.619Z,7.61
2024-01-29T20:04:50.941Z,7.58
2024-01-29T20:06:54.334Z,7.53
2024-01-29T20:08:57.652Z,7.52
2024-01-29T20:11:00.973Z,7.49
2024-01-29T20:13:05.069Z,7.46
2024-01-29T20:15:09.165Z,7.44
2024-01-29T20:17:13.907Z,7.40
2024-01-29T20:19:17.291Z,7.39
2024-01-29T20:21:20.527Z,7.37
2024-01-29T20:23:23.657Z,7.33
2024-01-29T20:25:26.982Z,7.31
2024-01-29T20:27:30.406Z,7.27
2024-01-29T20:29:34.255Z,7.23
2024-01-29T20:31:37.620Z,7.19
2024-01-29T20:33:44.826Z,7.16
2024-01-29T20:35:48.112Z,7.13
2024-01-29T20:37:52.049Z,7.09
2024-01-29T20:39:54.457Z,7.09
2024-01-29T20:41:57.815Z,7.05
2024-01-29T20:44:01.615Z,7.02
2024-01-29T20:46:05.734Z,7.01
2024-01-29T20:48:09.377Z,6.98
2024-01-29T20:50:14.052Z,6.97
2024-01-29T20:52:17.622Z,6.95
2024-01-29T20:54:21.020Z,6.93
2024-01-29T20:56:25.411Z,6.92
2024-01-29T20:58:28.810Z,6.91
2024-01-29T21:00:32.045Z,6.87
2024-01-29T21:02:35.261Z,6.82
2024-01-29T21:04:41.279Z,6.79
2024-01-29T21:06:46.538Z,6.74
2024-01-29T21:08:49.002Z,6.70
2024-01-29T21:10:52.698Z,6.62
2024-01-29T21:12:56.120Z,6.56
2024-01-29T21:15:00.728Z,6.50
2024-01-29T21:17:04.190Z,6.38
2024-01-29T21:19:07.858Z,6.26
2024-01-29T21:21:11.468Z,6.19
2024-01-29T21:23:18.472Z,6.21
2024-01-29T21:25:22.105Z,6.19
2024-01-29T21:27:25.492Z,6.16
2024-01-29T21:29:28.890Z,6.14
2024-01-29T21:31:31.315Z,6.11
2024-01-29T21:33:34.764Z,6.10
2024-01-29T21:35:37.987Z,6.08
2024-01-29T21:37:41.343Z,6.09
2024-01-29T21:39:45.938Z,6.11
2024-01-29T21:41:49.964Z,6.13
2024-01-29T21:43:53.258Z,6.13
2024-01-29T21:45:56.855Z,6.09
2024-01-29T21:48:00.314Z,6.10
2024-01-29T21:50:04.778Z,6.11
2024-01-29T21:52:08.494Z,6.09
2024-01-29T21:54:10.744Z,6.08
2024-01-29T21:56:15.608Z,6.07
2024-01-29T21:58:20.505Z,6.03
2024-01-29T22:00:23.789Z,5.96
2024-01-29T22:02:26.937Z,5.80
2024-01-29T22:04:30.300Z,5.71
2024-01-29T22:06:33.610Z,5.64
2024-01-29T22:08:36.848Z,5.60
2024-01-29T22:10:40.201Z,5.59
2024-01-29T22:12:44.875Z,5.59
2024-01-29T22:14:47.930Z,5.60
2024-01-29T22:17:06.281Z,5.64
2024-01-29T22:19:09.538Z,5.62
2024-01-29T22:21:12.904Z,5.60
2024-01-29T22:23:16.131Z,5.56
2024-01-29T22:25:19.752Z,5.47
2024-01-29T22:27:23.017Z,5.40
2024-01-29T22:29:27.659Z,5.36
2024-01-29T22:31:30.988Z,5.34
2024-01-29T22:33:34.327Z,5.31
2024-01-29T22:35:56.096Z,5.29
2024-01-29T22:37:58.223Z,5.29
2024-01-29T22:40:01.909Z,5.30
2024-01-29T22:42:05.726Z,5.30
2024-01-29T22:44:09.504Z,5.28
2024-01-29T22:46:14.159Z,5.21
2024-01-29T22:48:17.402Z,5.16
2024-01-29T22:50:20.850Z,5.11
2024-01-29T22:52:23.060Z,5.10
2024-01-29T22:54:26.222Z,5.11
2024-01-29T22:56:29.275Z,5.10
2024-01-29T22:58:31.632Z,5.08
2024-01-29T23:00:35.301Z,5.07
2024-01-29T23:02:39.977Z,5.08
2024-01-29T23:04:43.637Z,5.07
2024-01-29T23:06:47.273Z,5.07
2024-01-29T23:08:51.250Z,5.04
2024-01-29T23:10:56.890Z,5.03
2024-01-29T23:13:00.626Z,5.03
2024-01-29T23:15:04.615Z,5.06
2024-01-29T23:17:08.123Z,5.05
2024-01-29T23:19:11.629Z,5.04
2024-01-29T23:21:14.808Z,5.02
2024-01-29T23:23:17.978Z,4.99
2024-01-29T23:25:21.299Z,5.00
2024-01-29T23:27:24.483Z,4.97
2024-01-29T23:29:27.637Z,4.91
2024-01-29T23:31:30.821Z,4.92
2024-01-29T23:33:34.196Z,4.90
2024-01-29T23:35:38.837Z,4.85
2024-01-29T23:37:44.905Z,4.82
2024-01-29T23:39:47.890Z,4.78
2024-01-29T23:41:51.055Z,4.82
2024-01-29T23:43:54.125Z,4.84
2024-01-29T23:45:57.170Z,4.82
2024-01-29T23:48:00.256Z,4.82
2024-01-29T23:50:02.508Z,4.78
2024-01-29T23:52:08.339Z,4.74
2024-01-29T23:54:11.443Z,4.73
2024-01-29T23:56:14.672Z,4.70
2024-01-29T23:58:17.843Z,4.73
